Time;durP1;ratioP1;P1;durP2;ratioP2;P2;SDS_P1;SDS_P2;PMS_P1;PMS_P2;Temp;Humidity;BMP_temperature;BMP_pressure;BME280_temperature;BME280_humidity;BME280_pressure;Samples;Min_cycle;Max_cycle;Signal;HPM_P1;HPM_P2
2024/04/22 00:01:49;;;;;;;0.10;0.10;;;8.10;68.30;;;;;;5473413;26;20442;-84
2024/04/22 00:04:15;;;;;;;0.10;0.10;;;8.00;68.60;;;;;;5456168;26;19999;-84
2024/04/22 00:06:43;;;;;;;0.10;0.10;;;8.00;68.80;;;;;;5483110;26;20005;-85
2024/04/22 00:09:10;;;;;;;0.10;0.10;;;7.90;68.80;;;;;;5499716;26;19997;-84
2024/04/22 00:11:35;;;;;;;0.10;0.10;;;8.00;69.00;;;;;;5529023;25;19994;-84
2024/04/22 00:14:01;;;;;;;0.10;0.10;;;7.90;69.20;;;;;;5505884;26;20074;-84
2024/04/22 00:16:27;;;;;;;0.10;0.10;;;7.90;69.30;;;;;;5493134;26;20052;-85
2024/04/22 00:18:52;;;;;;;0.10;0.10;;;7.90;69.30;;;;;;5490157;26;20488;-85
2024/04/22 00:21:18;;;;;;;0.10;0.10;;;7.90;69.10;;;;;;5492403;26;20012;-85
2024/04/22 00:23:44;;;;;;;0.10;0.10;;;7.80;69.00;;;;;;5493151;26;19998;-85
2024/04/22 00:26:10;;;;;;;0.10;0.10;;;7.90;69.10;;;;;;5484062;26;20014;-84
2024/04/22 00:28:35;;;;;;;0.10;0.10;;;7.90;69.20;;;;;;5455860;26;19995;-85
2024/04/22 00:31:01;;;;;;;0.10;0.10;;;7.80;69.30;;;;;;5469194;26;20460;-85
2024/04/22 00:33:27;;;;;;;0.10;0.10;;;7.80;69.10;;;;;;5492726;26;19994;-84
2024/04/22 00:35:56;;;;;;;0.10;0.10;;;7.80;69.00;;;;;;5492421;26;20001;-84
2024/04/22 00:38:22;;;;;;;0.10;0.10;;;7.70;69.00;;;;;;5484540;26;20013;-84
2024/04/22 00:40:48;;;;;;;0.10;0.10;;;7.70;69.20;;;;;;5489335;26;20038;-84
2024/04/22 00:43:13;;;;;;;0.10;0.10;;;7.70;69.00;;;;;;5492154;26;20869;-84
2024/04/22 00:45:39;;;;;;;0.10;0.10;;;7.60;69.60;;;;;;5492195;26;20012;-84
2024/04/22 00:48:05;;;;;;;0.10;0.10;;;7.60;69.30;;;;;;5490523;26;19998;-83
2024/04/22 00:50:31;;;;;;;0.10;0.10;;;7.60;69.60;;;;;;5491423;26;20010;-84
2024/04/22 00:53:00;;;;;;;0.10;0.10;;;7.60;69.60;;;;;;5491205;26;20002;-84
2024/04/22 00:55:26;;;;;;;0.10;0.10;;;7.50;69.60;;;;;;5491805;26;20439;-84
2024/04/22 00:57:56;;;;;;;0.10;0.10;;;7.60;69.70;;;;;;5490999;26;20044;-85
2024/04/22 01:00:23;;;;;;;0.10;0.10;;;7.50;69.60;;;;;;5492207;26;20002;-84
2024/04/22 01:02:50;;;;;;;0.15;0.15;;;7.50;69.80;;;;;;5490211;26;20014;-84
2024/04/22 01:05:16;;;;;;;0.20;0.20;;;7.50;69.70;;;;;;5490719;26;20070;-84
2024/04/22 01:07:42;;;;;;;0.10;0.10;;;7.50;69.80;;;;;;5490545;26;20005;-84
2024/04/22 01:10:08;;;;;;;0.10;0.10;;;7.50;69.80;;;;;;5513339;26;20323;-85
2024/04/22 01:12:33;;;;;;;0.10;0.10;;;7.40;70.00;;;;;;5512532;25;19998;-84
2024/04/22 01:14:59;;;;;;;0.10;0.10;;;7.40;69.90;;;;;;5491758;26;20003;-84
2024/04/22 01:17:43;;;;;;;0.10;0.10;;;7.30;70.10;;;;;;5492143;26;20202;-85
2024/04/22 01:20:09;;;;;;;0.10;0.10;;;7.40;70.10;;;;;;5494490;26;20002;-84
2024/04/22 01:22:35;;;;;;;0.10;0.10;;;7.30;69.80;;;;;;5523370;26;20012;-84
2024/04/22 01:25:02;;;;;;;0.10;0.10;;;7.30;70.10;;;;;;5479466;26;19999;-84
2024/04/22 01:27:33;;;;;;;0.10;0.10;;;7.30;69.80;;;;;;5473502;26;19997;-84
2024/04/22 01:30:04;;;;;;;0.10;0.10;;;7.30;70.20;;;;;;5493191;26;20016;-85
2024/04/22 01:32:31;;;;;;;0.10;0.10;;;7.30;70.20;;;;;;5493233;26;20002;-85
2024/04/22 01:34:58;;;;;;;0.10;0.10;;;7.20;70.50;;;;;;5493986;26;19994;-84
2024/04/22 01:37:24;;;;;;;0.10;0.10;;;7.20;70.50;;;;;;5493091;26;20052;-84
2024/04/22 01:39:50;;;;;;;0.10;0.10;;;7.20;70.50;;;;;;5493132;26;20394;-84
2024/04/22 01:42:16;;;;;;;0.10;0.10;;;7.20;70.90;;;;;;5492641;26;20005;-85
2024/04/22 01:44:41;;;;;;;0.10;0.10;;;7.10;70.70;;;;;;5495765;26;19998;-85
2024/04/22 01:47:07;;;;;;;0.10;0.10;;;7.10;70.90;;;;;;5494890;26;20010;-84
2024/04/22 01:49:33;;;;;;;0.10;0.10;;;7.10;70.80;;;;;;5494047;26;20074;-84
2024/04/22 01:51:58;;;;;;;0.10;0.10;;;7.00;70.80;;;;;;5494340;26;21491;-85
2024/04/22 01:54:24;;;;;;;0.10;0.10;;;7.00;71.00;;;;;;5494413;26;19998;-86
2024/04/22 01:56:50;;;;;;;0.10;0.10;;;7.00;71.00;;;;;;5494752;26;20010;-84
2024/04/22 01:59:16;;;;;;;0.10;0.10;;;7.10;70.90;;;;;;5492588;26;20002;-85
2024/04/22 02:01:43;;;;;;;0.10;0.10;;;7.00;70.90;;;;;;5493593;26;20001;-85
2024/04/22 02:04:09;;;;;;;0.10;0.10;;;7.00;71.40;;;;;;5494532;26;20397;-85
2024/04/22 02:06:35;;;;;;;0.10;0.10;;;6.90;71.20;;;;;;5492978;26;19994;-84
2024/04/22 02:09:01;;;;;;;0.10;0.10;;;7.00;71.20;;;;;;5499173;26;20009;-84
2024/04/22 02:11:26;;;;;;;0.10;0.10;;;6.90;71.10;;;;;;5530074;26;20416;-84
2024/04/22 02:13:52;;;;;;;0.10;0.10;;;6.80;71.30;;;;;;5507790;26;20010;-84
2024/04/22 02:16:18;;;;;;;0.10;0.10;;;6.80;71.20;;;;;;5494231;26;20038;-84
2024/04/22 02:18:44;;;;;;;0.10;0.10;;;6.80;71.50;;;;;;5492287;26;19994;-84
2024/04/22 02:21:10;;;;;;;0.10;0.10;;;6.80;71.40;;;;;;5523766;26;19998;-84
2024/04/22 02:23:35;;;;;;;0.10;0.10;;;6.80;71.30;;;;;;5490372;26;20009;-84
2024/04/22 02:26:02;;;;;;;0.10;0.10;;;6.70;71.40;;;;;;5492837;26;20455;-84
2024/04/22 02:28:28;;;;;;;0.10;0.10;;;6.70;71.60;;;;;;5492887;26;20017;-85
2024/04/22 02:30:54;;;;;;;0.10;0.10;;;6.70;71.80;;;;;;5493209;26;20006;-85
2024/04/22 02:33:20;;;;;;;0.10;0.10;;;6.60;72.10;;;;;;5494177;26;20066;-84
2024/04/22 02:35:46;;;;;;;0.10;0.10;;;6.60;72.20;;;;;;5490943;26;19994;-84
2024/04/22 02:38:12;;;;;;;0.10;0.10;;;6.60;72.40;;;;;;5492082;26;19998;-84
2024/04/22 02:40:39;;;;;;;0.10;0.10;;;6.60;72.50;;;;;;5493431;26;20005;-84
2024/04/22 02:43:05;;;;;;;0.10;0.10;;;6.60;72.40;;;;;;5494230;26;20002;-84
2024/04/22 02:45:31;;;;;;;0.10;0.10;;;6.60;72.40;;;;;;5489908;26;20853;-84
2024/04/22 02:47:56;;;;;;;0.10;0.10;;;6.60;72.50;;;;;;5491800;26;20005;-84
2024/04/22 02:50:22;;;;;;;0.10;0.10;;;6.50;72.40;;;;;;5493224;26;20006;-84
2024/04/22 02:52:48;;;;;;;0.10;0.10;;;6.50;72.50;;;;;;5492203;26;20012;-84
2024/04/22 02:55:14;;;;;;;0.10;0.10;;;6.50;72.30;;;;;;5493138;26;20010;-85
2024/04/22 02:57:39;;;;;;;0.10;0.10;;;6.50;72.60;;;;;;5494280;26;19998;-84
2024/04/22 03:00:05;;;;;;;0.10;0.10;;;6.40;72.40;;;;;;5493126;26;20006;-84
2024/04/22 03:02:31;;;;;;;0.10;0.10;;;6.50;72.30;;;;;;5493328;26;19994;-84
2024/04/22 03:04:57;;;;;;;0.10;0.10;;;6.40;72.60;;;;;;5492902;26;20015;-84
2024/04/22 03:07:22;;;;;;;0.10;0.10;;;6.30;72.60;;;;;;5490358;26;20002;-85
2024/04/22 03:09:49;;;;;;;0.10;0.10;;;6.30;72.80;;;;;;5510692;26;20013;-84
2024/04/22 03:12:15;;;;;;;0.10;0.10;;;6.30;72.70;;;;;;5528164;26;20002;-84
2024/04/22 03:14:40;;;;;;;0.10;0.10;;;6.30;73.00;;;;;;5496217;26;19995;-85
2024/04/22 03:17:06;;;;;;;0.10;0.10;;;6.20;73.10;;;;;;5493764;26;20000;-84
2024/04/22 03:19:32;;;;;;;0.10;0.10;;;6.20;73.20;;;;;;5492639;26;20009;-84
2024/04/22 03:21:58;;;;;;;0.10;0.10;;;6.20;72.90;;;;;;5493157;26;19994;-84
2024/04/22 03:24:24;;;;;;;0.10;0.10;;;6.20;73.40;;;;;;5493558;26;20006;-84
2024/04/22 03:26:49;;;;;;;0.10;0.10;;;6.20;73.40;;;;;;5493033;26;20006;-84
2024/04/22 03:29:16;;;;;;;0.10;0.10;;;6.20;73.40;;;;;;5491835;26;19999;-85
2024/04/22 03:31:42;;;;;;;0.10;0.10;;;6.20;73.50;;;;;;5489638;26;20460;-84
2024/04/22 03:34:08;;;;;;;0.10;0.10;;;6.20;73.60;;;;;;5491405;26;20017;-84
2024/04/22 03:36:34;;;;;;;0.10;0.10;;;6.20;73.60;;;;;;5491730;26;19998;-84
2024/04/22 03:38:59;;;;;;;0.10;0.10;;;6.20;73.60;;;;;;5492259;26;19998;-84
2024/04/22 03:41:27;;;;;;;0.10;0.10;;;6.20;73.80;;;;;;5491371;26;20050;-84
2024/04/22 03:43:55;;;;;;;0.10;0.10;;;6.20;73.90;;;;;;5491856;26;20523;-84
2024/04/22 03:51:49;;;;;;;0.10;0.10;;;6.20;73.70;;;;;;5492102;26;20009;-84
2024/04/22 03:54:15;;;;;;;0.10;0.10;;;6.20;73.80;;;;;;5493161;26;19994;-85
2024/04/22 03:56:41;;;;;;;0.10;0.10;;;6.30;73.80;;;;;;5489518;26;19998;-84
2024/04/22 03:59:07;;;;;;;0.10;0.10;;;6.30;73.80;;;;;;5490778;26;20457;-84
2024/04/22 04:01:32;;;;;;;0.10;0.10;;;6.30;73.50;;;;;;5491667;26;20009;-84
2024/04/22 04:03:59;;;;;;;0.10;0.10;;;6.30;73.50;;;;;;5491116;26;20005;-85
2024/04/22 04:06:26;;;;;;;0.10;0.10;;;6.20;73.60;;;;;;5490469;26;20006;-84
2024/04/22 04:08:52;;;;;;;0.20;0.20;;;6.20;73.70;;;;;;5493856;26;20348;-84
2024/04/22 04:11:23;;;;;;;0.10;0.10;;;6.20;73.60;;;;;;5505578;26;20001;-84
2024/04/22 04:13:49;;;;;;;0.10;0.10;;;6.20;73.30;;;;;;5490549;26;20002;-84
2024/04/22 04:16:15;;;;;;;0.10;0.10;;;6.20;73.40;;;;;;5490648;26;19999;-84
2024/04/22 04:18:41;;;;;;;0.10;0.10;;;6.20;73.20;;;;;;5491803;26;19998;-84
2024/04/22 04:21:07;;;;;;;0.20;0.20;;;6.20;73.00;;;;;;5489359;26;20026;-84
2024/04/22 04:23:33;;;;;;;0.10;0.10;;;6.20;73.20;;;;;;5490218;26;20009;-84
2024/04/22 04:25:59;;;;;;;0.10;0.10;;;6.20;73.10;;;;;;5490776;26;20044;-84
2024/04/22 04:28:25;;;;;;;0.10;0.10;;;6.00;73.20;;;;;;5492850;26;20062;-84
2024/04/22 04:30:55;;;;;;;0.10;0.10;;;6.00;73.50;;;;;;5488225;26;19999;-84
2024/04/22 04:33:20;;;;;;;0.10;0.10;;;6.00;73.60;;;;;;5469264;26;20333;-85
2024/04/22 04:35:55;;;;;;;0.17;0.17;;;5.90;73.50;;;;;;5487803;26;20009;-85
2024/04/22 04:38:21;;;;;;;0.10;0.10;;;5.90;73.70;;;;;;5455812;26;20013;-84
2024/04/22 04:40:47;;;;;;;0.10;0.10;;;5.80;73.70;;;;;;5475087;26;19995;-85
2024/04/22 04:43:12;;;;;;;0.10;0.10;;;5.80;73.70;;;;;;5479478;26;19994;-84
2024/04/22 04:45:38;;;;;;;0.10;0.10;;;5.80;73.50;;;;;;5490992;26;20017;-83
2024/04/22 04:48:04;;;;;;;0.10;0.10;;;5.80;73.70;;;;;;5492063;25;20414;-84
2024/04/22 04:50:29;;;;;;;0.15;0.15;;;5.80;73.80;;;;;;5492186;26;20002;-84
2024/04/22 04:52:58;;;;;;;0.10;0.10;;;5.70;73.90;;;;;;5491706;26;19999;-83
2024/04/22 04:55:44;;;;;;;0.10;0.10;;;5.70;74.20;;;;;;5465624;26;19999;-82
2024/04/22 04:58:41;;;;;;;0.10;0.10;;;5.70;74.50;;;;;;5483818;26;20002;-88
2024/04/22 05:01:06;;;;;;;0.10;0.10;;;5.80;74.50;;;;;;5487212;26;19995;-81
2024/04/22 05:03:32;;;;;;;0.10;0.10;;;5.80;74.00;;;;;;5467753;26;20001;-79
2024/04/22 05:05:59;;;;;;;0.10;0.10;;;5.70;74.30;;;;;;5494852;26;20047;-81
2024/04/22 05:08:25;;;;;;;0.10;0.10;;;5.70;74.40;;;;;;5486641;26;20022;-79
2024/04/22 05:10:51;;;;;;;0.10;0.10;;;5.70;74.60;;;;;;5524284;26;19998;-79
2024/04/22 05:13:16;;;;;;;0.10;0.10;;;5.70;74.60;;;;;;5499068;25;20012;-79
2024/04/22 05:15:42;;;;;;;0.10;0.10;;;5.70;74.60;;;;;;5495554;26;20002;-80
2024/04/22 05:18:26;;;;;;;0.10;0.10;;;5.70;74.40;;;;;;5493446;26;20020;-89
2024/04/22 05:20:52;;;;;;;0.10;0.10;;;5.80;74.50;;;;;;5494447;26;20006;-82
2024/04/22 05:23:17;;;;;;;0.10;0.10;;;5.70;74.70;;;;;;5487621;26;20005;-79
2024/04/22 05:25:43;;;;;;;0.10;0.10;;;5.70;74.70;;;;;;5480757;26;20013;-79
2024/04/22 05:28:08;;;;;;;0.10;0.10;;;5.70;74.20;;;;;;5495104;26;20002;-79
2024/04/22 05:30:34;;;;;;;0.10;0.10;;;5.70;74.30;;;;;;5494272;26;19994;-78
2024/04/22 05:36:08;;;;;;;0.10;0.10;;;5.70;74.40;;;;;;5492395;26;20009;-78
2024/04/22 05:38:30;;;;;;;0.10;0.10;;;5.70;74.30;;;;;;5495023;26;20146;-78
2024/04/22 05:40:55;;;;;;;0.10;0.10;;;5.70;74.50;;;;;;5493975;25;20013;-79
2024/04/22 05:43:21;;;;;;;0.15;0.15;;;5.80;74.40;;;;;;5494718;26;19998;-79
2024/04/22 05:45:47;;;;;;;0.10;0.10;;;5.90;74.30;;;;;;5493346;26;20002;-79
2024/04/22 05:48:12;;;;;;;0.10;0.10;;;6.00;74.20;;;;;;5492427;26;19994;-79
2024/04/22 05:50:38;;;;;;;0.10;0.10;;;6.00;74.10;;;;;;5492985;26;20013;-79
2024/04/22 05:53:03;;;;;;;0.10;0.10;;;6.00;74.30;;;;;;5492852;26;20002;-79
2024/04/22 05:55:29;;;;;;;0.10;0.10;;;6.10;74.10;;;;;;5500136;26;20009;-79
2024/04/22 05:57:55;;;;;;;0.10;0.10;;;6.10;74.10;;;;;;5494620;26;20002;-79
2024/04/22 06:00:20;;;;;;;0.10;0.10;;;6.20;74.10;;;;;;5490651;26;19995;-79
2024/04/22 06:02:46;;;;;;;0.10;0.10;;;6.20;73.90;;;;;;5498231;26;20008;-79
2024/04/22 06:05:12;;;;;;;0.10;0.10;;;6.10;74.30;;;;;;5499967;26;20078;-79
2024/04/22 06:07:37;;;;;;;0.10;0.10;;;6.20;74.10;;;;;;5490046;26;20009;-79
2024/04/22 06:10:04;;;;;;;0.10;0.10;;;6.20;74.00;;;;;;5508728;26;20026;-79
2024/04/22 06:12:29;;;;;;;0.10;0.10;;;6.40;73.90;;;;;;5484506;26;20018;-79
2024/04/22 06:14:55;;;;;;;0.10;0.10;;;6.60;74.00;;;;;;5464118;26;19994;-79
2024/04/22 06:17:20;;;;;;;0.10;0.10;;;6.70;73.60;;;;;;5493369;26;19998;-79
2024/04/22 06:19:46;;;;;;;0.10;0.10;;;6.70;73.80;;;;;;5493813;26;20001;-79
2024/04/22 06:22:12;;;;;;;0.20;0.20;;;6.70;73.90;;;;;;5494331;26;20039;-79
2024/04/22 06:24:38;;;;;;;0.20;0.20;;;6.80;73.70;;;;;;5484968;26;19998;-79
2024/04/22 06:27:04;;;;;;;0.20;0.20;;;6.80;73.70;;;;;;5463203;26;20011;-80
2024/04/22 06:29:29;;;;;;;0.10;0.10;;;7.00;73.50;;;;;;5516064;26;20027;-80
2024/04/22 06:31:55;;;;;;;0.10;0.10;;;7.00;73.20;;;;;;5491794;26;20321;-80
2024/04/22 06:34:21;;;;;;;0.15;0.15;;;7.00;73.20;;;;;;5507183;26;20049;-80
2024/04/22 06:36:46;;;;;;;0.10;0.10;;;7.00;73.40;;;;;;5490987;26;20004;-80
2024/04/22 06:39:12;;;;;;;0.10;0.10;;;6.90;73.40;;;;;;5490562;26;19995;-80
2024/04/22 06:41:38;;;;;;;0.10;0.10;;;7.00;73.30;;;;;;5493334;26;19998;-80
2024/04/22 06:44:03;;;;;;;0.10;0.10;;;7.00;73.30;;;;;;5493897;26;20010;-80
2024/04/22 06:46:29;;;;;;;0.17;0.17;;;7.10;73.20;;;;;;5491211;26;19994;-80
2024/04/22 06:48:54;;;;;;;0.10;0.10;;;7.20;73.20;;;;;;5492194;26;20087;-80
2024/04/22 06:51:20;;;;;;;0.10;0.10;;;7.20;73.30;;;;;;5493660;26;20014;-80
2024/04/22 06:53:46;;;;;;;0.10;0.10;;;7.20;73.50;;;;;;5492496;26;19995;-80
2024/04/22 06:56:11;;;;;;;0.10;0.10;;;7.20;73.30;;;;;;5481578;26;20005;-80
2024/04/22 06:58:37;;;;;;;0.13;0.13;;;7.20;73.30;;;;;;5483481;26;20003;-80
2024/04/22 07:01:03;;;;;;;0.10;0.10;;;7.20;73.70;;;;;;5480537;26;20066;-79
2024/04/22 07:03:29;;;;;;;0.10;0.10;;;7.30;74.00;;;;;;5472514;26;20015;-80
2024/04/22 07:05:54;;;;;;;0.10;0.10;;;7.30;74.00;;;;;;5476236;26;19999;-80
2024/04/22 07:08:20;;;;;;;0.10;0.10;;;7.40;73.70;;;;;;5479975;26;19994;-80
2024/04/22 07:10:46;;;;;;;0.10;0.10;;;7.40;73.70;;;;;;5475700;26;20002;-80
2024/04/22 07:13:11;;;;;;;0.10;0.10;;;7.40;73.90;;;;;;5478111;26;19998;-80
2024/04/22 07:15:37;;;;;;;0.10;0.10;;;7.50;73.90;;;;;;5481624;26;20087;-79
2024/04/22 07:18:03;;;;;;;0.10;0.10;;;7.70;73.60;;;;;;5473674;26;20451;-79
2024/04/22 07:20:29;;;;;;;0.10;0.10;;;7.80;73.00;;;;;;5470039;26;20005;-79
2024/04/22 07:22:54;;;;;;;0.10;0.10;;;8.00;73.00;;;;;;5468333;26;19994;-80
2024/04/22 07:25:20;;;;;;;0.10;0.10;;;8.10;72.70;;;;;;5476300;26;20006;-79
2024/04/22 07:27:46;;;;;;;0.20;0.20;;;8.30;72.20;;;;;;5473520;26;19999;-80
2024/04/22 07:30:12;;;;;;;0.10;0.10;;;8.70;71.20;;;;;;5471844;26;19990;-80
2024/04/22 07:32:38;;;;;;;0.10;0.10;;;9.20;70.00;;;;;;5472183;26;20013;-80
2024/04/22 07:35:04;;;;;;;0.20;0.20;;;9.50;68.90;;;;;;5470478;26;20006;-79
2024/04/22 07:37:39;;;;;;;0.13;0.13;;;9.80;67.80;;;;;;5478944;26;20002;-80
2024/04/22 07:40:14;;;;;;;0.20;0.20;;;10.10;66.90;;;;;;5465296;26;20033;-83
2024/04/22 07:42:41;;;;;;;0.30;0.30;;;11.20;65.10;;;;;;5479391;26;20013;-81
2024/04/22 07:45:07;;;;;;;0.30;0.30;;;13.40;59.80;;;;;;5469906;25;20031;-81
2024/04/22 07:47:33;;;;;;;0.40;0.40;;;14.80;55.70;;;;;;5457292;26;20003;-78
2024/04/22 07:49:58;;;;;;;0.40;0.40;;;16.00;52.40;;;;;;5473544;26;20006;-79
2024/04/22 07:52:27;;;;;;;0.60;0.60;;;17.50;49.20;;;;;;5470837;26;20017;-76
2024/04/22 07:54:53;;;;;;;0.60;0.60;;;19.20;44.20;;;;;;5478830;26;20002;-77
2024/04/22 07:57:20;;;;;;;0.60;0.60;;;20.80;41.90;;;;;;5468449;26;20002;-77
2024/04/22 07:59:46;;;;;;;0.60;0.60;;;22.30;37.90;;;;;;5461057;26;19999;-77
2024/04/22 08:02:15;;;;;;;0.50;0.50;;;23.40;36.10;;;;;;5469912;26;20017;-74
2024/04/22 08:04:59;;;;;;;0.70;0.70;;;24.10;34.70;;;;;;5479034;26;20002;-75
2024/04/22 08:07:25;;;;;;;0.80;0.80;;;24.90;33.00;;;;;;5460201;26;20033;-76
2024/04/22 08:09:50;;;;;;;0.70;0.70;;;25.80;32.10;;;;;;5475716;26;19994;-76
2024/04/22 08:12:16;;;;;;;0.70;0.70;;;26.70;30.70;;;;;;5482605;26;20009;-76
2024/04/22 08:14:42;;;;;;;0.60;0.60;;;27.10;30.60;;;;;;5460220;26;20046;-78
2024/04/22 08:17:08;;;;;;;0.55;0.55;;;25.50;31.30;;;;;;5468846;26;20002;-78
2024/04/22 08:19:34;;;;;;;0.85;0.85;;;24.90;32.20;;;;;;5484494;26;20029;-78
2024/04/22 08:22:00;;;;;;;0.10;0.10;;;26.00;31.20;;;;;;5469479;26;20423;-78
2024/04/22 08:24:26;;;;;;;0.25;0.25;;;24.90;30.70;;;;;;5477419;26;19999;-78
2024/04/22 08:26:55;;;;;;;0.10;0.10;;;24.40;31.90;;;;;;5474074;26;20003;-77
2024/04/22 08:29:21;;;;;;;0.00;0.00;;;22.90;33.50;;;;;;5475649;26;19998;-77
2024/04/22 08:31:46;;;;;;;0.00;0.00;;;21.40;34.70;;;;;;5485554;26;20004;-77
2024/04/22 08:34:12;;;;;;;0.38;0.38;;;20.80;35.70;;;;;;5467768;26;19999;-77
2024/04/22 08:36:37;;;;;;;0.70;0.70;;;19.60;38.30;;;;;;5465498;26;19998;-77
2024/04/22 08:39:04;;;;;;;0.60;0.60;;;21.80;36.50;;;;;;5472795;26;20066;-77
2024/04/22 08:41:29;;;;;;;0.50;0.50;;;22.80;34.40;;;;;;5467590;26;20035;-77
2024/04/22 08:43:55;;;;;;;0.68;0.68;;;22.90;34.30;;;;;;5480634;26;20964;-77
2024/04/22 08:46:21;;;;;;;0.35;0.35;;;23.00;33.50;;;;;;5462470;26;20542;-77
2024/04/22 08:48:46;;;;;;;0.70;0.70;;;23.60;32.90;;;;;;5467095;26;19995;-77
2024/04/22 08:51:12;;;;;;;0.30;0.30;;;24.50;31.70;;;;;;5481427;26;20446;-78
2024/04/22 08:53:38;;;;;;;0.63;0.63;;;25.00;31.50;;;;;;5462872;26;20009;-78
2024/04/22 08:56:04;;;;;;;0.35;0.35;;;24.70;31.00;;;;;;5461080;26;20454;-76
2024/04/22 08:58:30;;;;;;;0.55;0.55;;;24.80;30.20;;;;;;5470323;26;20025;-76
2024/04/22 09:00:57;;;;;;;0.00;0.00;;;25.10;29.80;;;;;;5484056;26;19998;-76
2024/04/22 09:03:23;;;;;;;0.32;0.32;;;24.30;30.30;;;;;;5478362;26;20018;-76
2024/04/22 09:05:50;;;;;;;0.47;0.47;;;22.60;31.90;;;;;;5472373;26;20038;-77
2024/04/22 09:08:15;;;;;;;0.10;0.10;;;23.60;31.90;;;;;;5474532;26;20017;-76
2024/04/22 09:10:41;;;;;;;0.00;0.00;;;23.60;31.20;;;;;;5477188;26;19990;-76
2024/04/22 09:13:07;;;;;;;0.00;0.00;;;21.90;33.00;;;;;;5472028;26;20002;-76
2024/04/22 09:15:32;;;;;;;0.60;0.60;;;20.60;35.00;;;;;;5486888;26;20391;-76
2024/04/22 09:17:58;;;;;;;0.90;0.90;;;20.10;35.80;;;;;;5470403;26;19999;-76
2024/04/22 09:20:26;;;;;;;0.32;0.32;;;21.30;35.20;;;;;;5473372;26;20040;-76
2024/04/22 09:22:53;;;;;;;0.00;0.00;;;20.50;35.60;;;;;;5472757;26;20425;-76
2024/04/22 09:25:19;;;;;;;0.00;0.00;;;19.40;37.10;;;;;;5469744;26;20022;-76
2024/04/22 09:27:46;;;;;;;0.00;0.00;;;18.30;38.50;;;;;;5463689;26;20404;-78
2024/04/22 09:30:17;;;;;;;0.00;0.00;;;17.80;40.20;;;;;;5474163;26;20058;-75
2024/04/22 09:32:47;;;;;;;0.10;0.10;;;17.70;40.80;;;;;;5473717;26;20398;-76
2024/04/22 09:35:18;;;;;;;0.30;0.30;;;18.30;40.30;;;;;;5474113;26;20008;-77
2024/04/22 09:37:44;;;;;;;0.40;0.40;;;18.60;39.70;;;;;;5464866;26;19994;-77
2024/04/22 09:40:11;;;;;;;0.10;0.10;;;19.00;39.10;;;;;;5471119;26;20066;-77
2024/04/22 09:42:41;;;;;;;0.00;0.00;;;18.80;38.90;;;;;;5474482;26;20432;-77
2024/04/22 09:45:08;;;;;;;0.10;0.10;;;18.20;39.60;;;;;;5478188;26;20775;-76
2024/04/22 09:47:37;;;;;;;0.08;0.08;;;17.60;40.50;;;;;;5474790;25;20332;-76
2024/04/22 09:50:04;;;;;;;0.10;0.10;;;17.10;41.50;;;;;;5470256;26;20002;-77
2024/04/22 09:52:33;;;;;;;0.10;0.10;;;16.70;42.90;;;;;;5484235;26;20012;-77
2024/04/22 09:55:01;;;;;;;0.00;0.00;;;16.30;43.50;;;;;;5484387;26;20015;-77
2024/04/22 09:57:32;;;;;;;0.00;0.00;;;16.00;44.20;;;;;;5480665;26;20865;-77
2024/04/22 09:59:59;;;;;;;0.00;0.00;;;15.90;44.60;;;;;;5475045;26;20412;-77
2024/04/22 10:02:26;;;;;;;0.10;0.10;;;15.90;44.00;;;;;;5491524;26;20460;-78
2024/04/22 10:04:52;;;;;;;0.80;0.80;;;16.10;44.20;;;;;;5490674;26;20014;-78
2024/04/22 10:07:19;;;;;;;0.80;0.80;;;17.40;43.30;;;;;;5475499;26;20416;-78
2024/04/22 10:09:49;;;;;;;0.70;0.70;;;18.70;40.70;;;;;;5479537;26;20009;-78
2024/04/22 10:12:14;;;;;;;0.00;0.00;;;19.80;39.50;;;;;;5488108;26;20008;-78
2024/04/22 10:14:42;;;;;;;0.00;0.00;;;19.60;38.90;;;;;;5490995;26;20393;-77
2024/04/22 10:17:08;;;;;;;0.40;0.40;;;18.80;39.70;;;;;;5494229;25;20474;-77
2024/04/22 10:19:34;;;;;;;0.70;0.70;;;18.20;39.90;;;;;;5493428;26;19998;-77
2024/04/22 10:22:07;;;;;;;0.50;0.50;;;18.80;38.80;;;;;;5474366;26;20108;-77
2024/04/22 10:24:37;;;;;;;0.10;0.10;;;19.20;38.10;;;;;;5479281;26;20006;-77
2024/04/22 10:27:07;;;;;;;0.00;0.00;;;19.30;38.30;;;;;;5469002;26;20012;-76
2024/04/22 10:29:32;;;;;;;0.10;0.10;;;18.70;38.50;;;;;;5481821;26;20030;-77
2024/04/22 10:32:05;;;;;;;0.03;0.03;;;17.50;38.60;;;;;;5470790;26;20002;-77
2024/04/22 10:34:31;;;;;;;0.10;0.10;;;16.90;39.90;;;;;;5478651;26;20005;-88
2024/04/22 10:36:56;;;;;;;0.10;0.10;;;17.00;40.10;;;;;;5487018;26;19990;-89
2024/04/22 10:39:23;;;;;;;0.10;0.10;;;16.80;41.60;;;;;;5491241;26;19990;-88
2024/04/22 10:41:48;;;;;;;0.10;0.10;;;17.20;41.50;;;;;;5491733;26;20005;-87
2024/04/22 10:44:14;;;;;;;0.10;0.10;;;17.30;40.90;;;;;;5492596;26;19999;-91
2024/04/22 10:46:40;;;;;;;0.00;0.00;;;17.60;40.70;;;;;;5492696;26;19998;-90
2024/04/22 10:49:06;;;;;;;0.00;0.00;;;17.30;40.30;;;;;;5492213;26;20090;-88
2024/04/22 10:51:35;;;;;;;0.00;0.00;;;16.90;39.80;;;;;;5524026;26;19994;-88
2024/04/22 10:54:00;;;;;;;0.10;0.10;;;16.60;40.80;;;;;;5489759;26;19998;-88
2024/04/22 10:56:26;;;;;;;0.00;0.00;;;16.30;42.00;;;;;;5461804;26;20071;-89
2024/04/22 10:58:52;;;;;;;0.10;0.10;;;16.00;41.80;;;;;;5483619;26;20073;-90
2024/04/22 11:01:20;;;;;;;0.10;0.10;;;16.00;41.60;;;;;;5495679;26;19998;-91
2024/04/22 11:03:46;;;;;;;0.10;0.10;;;16.10;41.50;;;;;;5529805;26;20001;-91
2024/04/22 11:06:13;;;;;;;0.10;0.10;;;16.30;41.80;;;;;;5528735;26;20001;-93
2024/04/22 11:08:40;;;;;;;0.10;0.10;;;16.30;41.70;;;;;;5493584;26;19998;-91
2024/04/22 11:11:07;;;;;;;0.10;0.10;;;16.60;42.30;;;;;;5492861;26;20382;-90
2024/04/22 11:13:34;;;;;;;0.10;0.10;;;16.60;41.90;;;;;;5491265;26;20002;-92
2024/04/22 11:16:10;;;;;;;0.00;0.00;;;16.60;42.10;;;;;;5492944;26;19998;-91
2024/04/22 11:18:36;;;;;;;0.10;0.10;;;16.30;42.70;;;;;;5492115;26;20002;-90
2024/04/22 11:21:02;;;;;;;0.10;0.10;;;16.20;43.40;;;;;;5494026;26;20071;-91
2024/04/22 11:23:28;;;;;;;0.10;0.10;;;16.00;44.10;;;;;;5493378;26;19998;-89
2024/04/22 11:25:54;;;;;;;0.10;0.10;;;16.20;44.30;;;;;;5494210;25;19995;-92
2024/04/22 11:28:20;;;;;;;0.10;0.10;;;16.30;44.00;;;;;;5456750;26;20052;-90
2024/04/22 11:30:49;;;;;;;0.10;0.10;;;16.40;44.10;;;;;;5490674;26;20102;-90
2024/04/22 11:33:15;;;;;;;0.10;0.10;;;16.30;44.00;;;;;;5492712;26;19998;-92
2024/04/22 11:35:41;;;;;;;0.10;0.10;;;16.00;44.60;;;;;;5482353;26;20044;-90
2024/04/22 11:38:15;;;;;;;0.10;0.10;;;16.10;44.50;;;;;;5456297;26;19998;-93
2024/04/22 11:40:43;;;;;;;0.10;0.10;;;16.10;44.20;;;;;;5491937;26;20038;-90
2024/04/22 11:43:09;;;;;;;0.10;0.10;;;16.50;44.30;;;;;;5492897;26;19998;-91
2024/04/22 11:45:35;;;;;;;0.10;0.10;;;16.60;44.50;;;;;;5493084;26;20005;-91
2024/04/22 11:48:03;;;;;;;0.10;0.10;;;16.40;41.40;;;;;;5491903;26;20002;-91
2024/04/22 11:50:28;;;;;;;0.10;0.10;;;16.30;42.40;;;;;;5491084;26;20092;-78
2024/04/22 11:52:59;;;;;;;0.10;0.10;;;16.30;41.80;;;;;;5479993;26;20005;-91
2024/04/22 11:55:25;;;;;;;0.10;0.10;;;15.70;41.50;;;;;;5487860;26;19998;-84
2024/04/22 11:57:51;;;;;;;0.10;0.10;;;15.60;43.60;;;;;;5482483;26;19994;-89
2024/04/22 12:00:17;;;;;;;0.10;0.10;;;15.50;43.90;;;;;;5482789;26;19997;-88
2024/04/22 12:02:42;;;;;;;0.10;0.10;;;15.70;44.20;;;;;;5485487;26;20494;-87
2024/04/22 12:05:13;;;;;;;0.10;0.10;;;15.80;43.30;;;;;;5459819;26;20467;-88
2024/04/22 12:07:43;;;;;;;0.10;0.10;;;15.80;43.10;;;;;;5477262;26;20006;-90
2024/04/22 12:10:11;;;;;;;0.10;0.10;;;15.80;42.00;;;;;;5483500;26;20390;-87
2024/04/22 12:12:40;;;;;;;0.10;0.10;;;16.10;43.40;;;;;;5484835;26;19998;-87
2024/04/22 12:15:08;;;;;;;0.10;0.10;;;16.30;41.70;;;;;;5480050;26;20329;-89
2024/04/22 12:17:33;;;;;;;0.10;0.10;;;16.70;41.60;;;;;;5475318;26;20005;-87
2024/04/22 12:19:59;;;;;;;0.10;0.10;;;17.00;41.50;;;;;;5459539;26;19999;-87
2024/04/22 12:22:24;;;;;;;0.10;0.10;;;17.30;42.00;;;;;;5465249;26;20018;-87
2024/04/22 12:24:50;;;;;;;0.10;0.10;;;17.50;40.20;;;;;;5460805;26;20002;-88
2024/04/22 12:27:16;;;;;;;0.10;0.10;;;17.40;40.70;;;;;;5459232;26;20013;-88
2024/04/22 12:29:42;;;;;;;0.10;0.10;;;17.30;42.20;;;;;;5464893;26;20453;-88
2024/04/22 12:32:07;;;;;;;0.10;0.10;;;17.30;42.90;;;;;;5478871;26;20090;-87
2024/04/22 12:34:33;;;;;;;0.10;0.10;;;17.00;43.90;;;;;;5483794;26;20440;-87
2024/04/22 12:36:59;;;;;;;0.10;0.10;;;16.40;44.90;;;;;;5474671;26;20638;-86
2024/04/22 12:39:24;;;;;;;0.10;0.10;;;16.40;45.10;;;;;;5474344;26;20002;-88
2024/04/22 12:41:50;;;;;;;0.10;0.10;;;16.30;45.50;;;;;;5474930;26;19995;-88
2024/04/22 12:44:16;;;;;;;0.10;0.10;;;16.60;47.50;;;;;;5474301;26;20009;-88
2024/04/22 12:52:12;;;;;;;0.10;0.10;;;17.10;44.50;;;;;;5473835;26;20049;-89
2024/04/22 12:54:39;;;;;;;0.10;0.10;;;16.90;44.40;;;;;;5473881;26;20041;-88
2024/04/22 12:57:05;;;;;;;0.13;0.13;;;16.70;43.20;;;;;;5476070;26;20005;-88
2024/04/22 12:59:30;;;;;;;0.08;0.08;;;16.50;42.70;;;;;;5476033;26;19998;-89
2024/04/22 13:01:56;;;;;;;0.10;0.10;;;16.50;43.60;;;;;;5469326;26;20002;-88
2024/04/22 13:04:22;;;;;;;0.10;0.10;;;16.50;43.30;;;;;;5475850;26;20006;-87